createdAt,value
2023-04-03T00:00:51.292Z,1.20
2023-04-03T00:03:21.068Z,1.20
2023-04-03T00:05:48.966Z,1.20
2023-04-03T00:08:16.905Z,1.20
2023-04-03T00:10:44.927Z,1.10
2023-04-03T00:13:13.254Z,1.10
2023-04-03T00:15:41.737Z,1.10
2023-04-03T00:18:09.953Z,1.10
2023-04-03T00:20:39.369Z,1.00
2023-04-03T00:23:07.471Z,1.00
2023-04-03T00:25:35.701Z,1.00
2023-04-03T00:28:04.295Z,1.00
2023-04-03T00:30:32.821Z,0.90
2023-04-03T00:33:01.840Z,0.90
2023-04-03T00:35:30.600Z,0.80
2023-04-03T00:37:59.976Z,0.80
2023-04-03T00:40:29.009Z,0.80
2023-04-03T00:43:00.576Z,0.80
2023-04-03T00:45:38.434Z,0.70
2023-04-03T00:48:08.808Z,0.70
2023-04-03T00:50:40.334Z,0.70
2023-04-03T00:53:13.043Z,0.70
2023-04-03T00:55:41.712Z,0.70
2023-04-03T00:58:10.219Z,0.70
2023-04-03T01:00:42.155Z,0.60
2023-04-03T01:03:11.235Z,0.60
2023-04-03T01:05:42.169Z,0.60
2023-04-03T01:08:12.118Z,0.50
2023-04-03T01:10:40.050Z,0.50
2023-04-03T01:13:24.726Z,0.50
2023-04-03T01:15:52.860Z,0.50
2023-04-03T01:18:21.513Z,0.50
2023-04-03T01:21:32.034Z,0.50
2023-04-03T01:24:14.077Z,0.50
2023-04-03T01:26:42.642Z,0.40
2023-04-03T01:29:10.834Z,0.40
2023-04-03T01:32:05.057Z,0.40
2023-04-03T01:34:32.959Z,0.40
2023-04-03T01:37:02.025Z,0.30
2023-04-03T01:39:29.948Z,0.30
2023-04-03T01:42:00.061Z,0.30
2023-04-03T01:44:32.796Z,0.30
2023-04-03T01:47:01.129Z,0.30
2023-04-03T01:49:31.762Z,0.30
2023-04-03T01:51:59.859Z,0.30
2023-04-03T01:54:27.889Z,0.30
2023-04-03T01:56:55.772Z,0.30
2023-04-03T01:59:24.059Z,0.20
2023-04-03T02:01:53.038Z,0.20
2023-04-03T02:04:20.969Z,0.20
2023-04-03T02:06:50.487Z,0.20
2023-04-03T02:09:18.321Z,0.10
2023-04-03T02:11:46.183Z,0.10
2023-04-03T02:14:15.200Z,0.10
2023-04-03T02:16:43.314Z,0.10
2023-04-03T02:19:11.189Z,0.10
2023-04-03T02:21:39.032Z,0.10
2023-04-03T02:24:08.531Z,0.00
2023-04-03T02:26:36.393Z,0.00
2023-04-03T02:29:04.483Z,0.00
2023-04-03T02:31:32.587Z,0.00
2023-04-03T02:34:02.858Z,-0.10
2023-04-03T02:36:32.866Z,-0.10
2023-04-03T02:39:05.207Z,-0.10
2023-04-03T02:41:36.301Z,-0.10
2023-04-03T02:44:08.831Z,-0.10
2023-04-03T02:46:37.001Z,-0.20
2023-04-03T02:49:05.901Z,-0.20
2023-04-03T02:51:34.123Z,-0.20
2023-04-03T02:54:02.358Z,-0.20
2023-04-03T02:56:34.875Z,-0.20
2023-04-03T02:59:02.860Z,-0.20
2023-04-03T03:01:33.747Z,-0.20
2023-04-03T03:04:02.063Z,-0.20
2023-04-03T03:06:29.974Z,-0.20
2023-04-03T03:08:58.402Z,-0.20
2023-04-03T03:11:26.330Z,-0.30
2023-04-03T03:13:55.941Z,-0.30
2023-04-03T03:16:26.174Z,-0.30
2023-04-03T03:18:54.123Z,-0.40
2023-04-03T03:21:22.022Z,-0.40
2023-04-03T03:23:49.947Z,-0.40
2023-04-03T03:26:17.765Z,-0.40
2023-04-03T03:28:45.763Z,-0.40
2023-04-03T03:31:16.240Z,-0.40
2023-04-03T03:33:44.174Z,-0.40
2023-04-03T03:36:12.615Z,-0.50
2023-04-03T03:38:40.602Z,-0.50
2023-04-03T03:41:08.478Z,-0.50
2023-04-03T03:43:36.948Z,-0.60
2023-04-03T03:46:06.966Z,-0.60
2023-04-03T03:48:36.220Z,-0.60
2023-04-03T03:51:04.245Z,-0.60
2023-04-03T03:53:36.571Z,-0.60
2023-04-03T03:56:08.738Z,-0.70
2023-04-03T03:58:39.372Z,-0.70
2023-04-03T04:01:08.195Z,-0.70
2023-04-03T04:03:43.703Z,-0.70
2023-04-03T04:06:14.574Z,-0.80
2023-04-03T04:08:42.819Z,-0.80
2023-04-03T04:11:12.755Z,-0.80
2023-04-03T04:13:42.378Z,-0.80
2023-04-03T04:16:12.998Z,-0.80
2023-04-03T04:18:40.954Z,-0.80
2023-04-03T04:21:10.301Z,-0.80
2023-04-03T04:23:39.926Z,-0.80
2023-04-03T04:26:07.824Z,-0.80
2023-04-03T04:28:39.073Z,-0.90
2023-04-03T04:31:08.183Z,-0.90
2023-04-03T04:33:36.603Z,-0.90
2023-04-03T04:36:07.110Z,-0.90
2023-04-03T04:38:37.051Z,-0.90
2023-04-03T04:41:05.300Z,-0.90
2023-04-03T04:43:33.536Z,-1.00
2023-04-03T04:46:06.482Z,-1.00
2023-04-03T04:48:39.096Z,-1.00
2023-04-03T04:51:08.193Z,-1.00
2023-04-03T04:53:39.922Z,-1.00
2023-04-03T04:56:09.449Z,-1.00
2023-04-03T04:58:39.238Z,-1.00
2023-04-03T05:01:08.736Z,-1.00
2023-04-03T05:03:41.208Z,-1.00
2023-04-03T05:06:09.232Z,-1.00
2023-04-03T05:08:39.456Z,-1.00
2023-04-03T05:11:10.693Z,-1.00
2023-04-03T05:13:40.012Z,-1.00
2023-04-03T05:16:08.412Z,-1.00
2023-04-03T05:18:36.973Z,-1.00
2023-04-03T05:21:09.887Z,-1.00
2023-04-03T05:23:39.230Z,-1.00
2023-04-03T05:26:07.914Z,-0.90
2023-04-03T05:28:36.573Z,-0.90
2023-04-03T05:31:05.092Z,-0.90
2023-04-03T05:33:36.844Z,-0.90
2023-04-03T05:36:08.420Z,-0.80
2023-04-03T05:38:43.188Z,-0.80
2023-04-03T05:41:11.665Z,-0.80
2023-04-03T05:43:39.939Z,-0.80
2023-04-03T05:46:13.029Z,-0.70
2023-04-03T05:48:45.291Z,-0.60
2023-04-03T05:51:19.552Z,-0.60
2023-04-03T05:54:05.182Z,-0.40
2023-04-03T05:56:33.022Z,-0.30
2023-04-03T05:59:01.229Z,-0.20
2023-04-03T06:01:29.468Z,0.00
2023-04-03T06:03:59.490Z,0.00
2023-04-03T06:06:27.788Z,0.20
2023-04-03T06:08:58.820Z,0.30
2023-04-03T06:11:26.731Z,0.40
2023-04-03T06:13:54.660Z,0.60
2023-04-03T06:16:23.147Z,0.80
2023-04-03T06:18:50.987Z,0.90
2023-04-03T06:21:19.095Z,1.10
2023-04-03T06:23:47.934Z,1.30
2023-04-03T06:26:17.182Z,1.40
2023-04-03T06:28:45.257Z,1.50
2023-04-03T06:31:13.124Z,1.60
2023-04-03T06:33:41.079Z,1.80
2023-04-03T06:36:09.898Z,2.10
2023-04-03T06:38:37.791Z,2.40
2023-04-03T06:41:05.791Z,2.50
2023-04-03T06:43:35.030Z,2.60
2023-04-03T06:46:03.085Z,2.70
2023-04-03T06:48:31.031Z,2.80
2023-04-03T06:51:00.228Z,3.00
2023-04-03T06:53:28.400Z,3.20
2023-04-03T06:55:56.271Z,3.20
2023-04-03T06:58:24.054Z,3.30
2023-04-03T07:00:53.268Z,3.40
2023-04-03T07:03:21.076Z,3.70
2023-04-03T07:05:48.904Z,3.90
2023-04-03T07:08:16.720Z,4.00
2023-04-03T07:10:44.788Z,4.00
2023-04-03T07:13:12.726Z,4.10
2023-04-03T07:15:40.594Z,4.20
2023-04-03T07:18:09.943Z,4.30
2023-04-03T07:20:37.899Z,4.30
2023-04-03T07:23:05.710Z,4.40
2023-04-03T07:25:34.647Z,4.40
2023-04-03T07:28:02.927Z,4.40
2023-04-03T07:30:30.809Z,4.60
2023-04-03T07:32:58.633Z,4.60
2023-04-03T07:35:27.933Z,4.70
2023-04-03T07:37:56.236Z,4.90
2023-04-03T07:40:24.176Z,5.10
2023-04-03T07:42:51.969Z,5.20
2023-04-03T07:45:20.130Z,5.30
2023-04-03T07:47:48.910Z,5.50
2023-04-03T07:50:17.170Z,5.70
2023-04-03T07:52:46.443Z,5.90
2023-04-03T07:55:14.372Z,6.20
2023-04-03T07:57:43.358Z,6.50
2023-04-03T08:00:13.171Z,6.70
2023-04-03T08:02:42.614Z,6.80
2023-04-03T08:05:11.305Z,7.00
2023-04-03T08:07:39.452Z,7.20
2023-04-03T08:10:09.621Z,7.30
2023-04-03T08:12:38.309Z,7.40
2023-04-03T08:15:07.967Z,7.40
2023-04-03T08:17:36.503Z,7.50
2023-04-03T08:20:05.897Z,7.60
2023-04-03T08:22:33.851Z,7.60
2023-04-03T08:25:02.505Z,7.50
2023-04-03T08:27:32.401Z,7.60
2023-04-03T08:30:00.808Z,7.60
2023-04-03T08:32:28.997Z,8.00
2023-04-03T08:34:56.983Z,8.20
2023-04-03T08:37:24.827Z,8.40
2023-04-03T08:39:52.980Z,8.50
2023-04-03T08:42:35.299Z,8.40
2023-04-03T08:45:12.730Z,8.60
2023-04-03T08:47:44.305Z,8.60
2023-04-03T08:50:17.167Z,8.70
2023-04-03T08:52:50.603Z,8.70
2023-04-03T08:55:25.605Z,8.60
2023-04-03T08:58:01.953Z,8.50
2023-04-03T09:00:36.645Z,8.80
2023-04-03T09:03:04.643Z,9.10
2023-04-03T09:05:41.244Z,9.10
2023-04-03T09:08:16.553Z,9.10
2023-04-03T09:10:44.746Z,9.00
2023-04-03T09:13:24.712Z,9.00
2023-04-03T09:15:55.368Z,8.80
2023-04-03T09:18:26.844Z,8.80
2023-04-03T09:21:02.622Z,8.70
2023-04-03T09:23:32.516Z,8.70
2023-04-03T09:26:05.898Z,8.70
2023-04-03T09:28:43.103Z,8.90
2023-04-03T09:31:23.447Z,8.80
2023-04-03T09:33:52.679Z,8.80
2023-04-03T09:36:45.378Z,9.00
2023-04-03T09:39:15.827Z,9.20
2023-04-03T09:41:58.393Z,9.30
2023-04-03T09:44:28.015Z,9.30
2023-04-03T09:46:57.414Z,9.20
2023-04-03T09:49:25.651Z,9.20
2023-04-03T09:51:54.596Z,9.20
2023-04-03T09:54:43.118Z,9.60
2023-04-03T09:57:14.198Z,10.00
2023-04-03T09:59:46.654Z,10.10
2023-04-03T10:02:34.232Z,10.10
2023-04-03T10:07:36.736Z,10.30
2023-04-03T10:10:19.322Z,10.30
2023-04-03T10:12:47.295Z,10.20
2023-04-03T10:15:17.881Z,9.80
2023-04-03T10:17:58.564Z,9.00
2023-04-03T10:20:34.744Z,8.60
2023-04-03T10:23:16.800Z,8.40
2023-04-03T10:25:56.312Z,8.40
2023-04-03T10:28:33.454Z,8.50
2023-04-03T10:31:10.817Z,8.90
2023-04-03T10:33:53.919Z,9.40
2023-04-03T10:36:29.758Z,9.10
2023-04-03T10:39:04.372Z,8.70
2023-04-03T10:41:43.704Z,8.30
2023-04-03T10:44:22.641Z,8.00
2023-04-03T10:46:55.221Z,7.80
2023-04-03T10:49:40.614Z,7.60
2023-04-03T10:52:16.393Z,7.60
2023-04-03T10:54:48.955Z,8.10
2023-04-03T10:57:17.419Z,8.70
2023-04-03T10:59:49.134Z,8.90
2023-04-03T11:02:26.886Z,9.50
2023-04-03T11:05:03.513Z,9.40
2023-04-03T11:07:40.040Z,9.20
2023-04-03T11:10:16.016Z,9.10
2023-04-03T11:12:47.121Z,9.50
2023-04-03T11:15:18.328Z,9.70
2023-04-03T11:17:53.775Z,9.40
2023-04-03T11:20:28.881Z,9.20
2023-04-03T11:23:02.297Z,9.00
2023-04-03T11:25:33.694Z,8.80
2023-04-03T11:28:04.650Z,8.90
2023-04-03T11:30:36.580Z,8.90
2023-04-03T11:33:21.034Z,9.40
2023-04-03T11:35:53.605Z,9.50
2023-04-03T11:38:25.479Z,9.60
2023-04-03T11:40:54.648Z,9.60
2023-04-03T11:43:26.757Z,9.80
2023-04-03T11:45:59.798Z,9.70
2023-04-03T11:48:50.512Z,9.90
2023-04-03T11:51:44.804Z,9.70
2023-04-03T11:54:50.642Z,9.40
2023-04-03T11:58:06.229Z,9.50
2023-04-03T12:00:55.385Z,9.60
2023-04-03T12:04:02.287Z,9.40
2023-04-03T12:07:18.017Z,8.80
2023-04-03T12:10:28.650Z,8.50
2023-04-03T12:13:03.559Z,8.80
2023-04-03T12:15:54.791Z,9.00
2023-04-03T12:18:59.241Z,8.60
2023-04-03T12:22:12.069Z,8.30
2023-04-03T12:24:41.319Z,8.40
2023-04-03T12:27:25.075Z,8.30
2023-04-03T12:30:02.082Z,8.40
2023-04-03T12:33:09.476Z,8.30
2023-04-03T12:35:48.200Z,8.40
2023-04-03T12:38:41.697Z,8.70
2023-04-03T12:41:29.431Z,8.80
2023-04-03T12:44:19.826Z,8.60
2023-04-03T12:46:50.348Z,8.40
2023-04-03T12:49:34.265Z,8.60
2023-04-03T12:52:04.811Z,8.70
2023-04-03T12:54:37.009Z,8.50
2023-04-03T12:57:12.363Z,8.10
2023-04-03T12:59:40.366Z,8.20
2023-04-03T13:02:23.971Z,8.30
2023-04-03T13:04:53.091Z,8.30
2023-04-03T13:07:28.330Z,8.30
2023-04-03T13:10:03.020Z,8.50
2023-04-03T13:12:32.355Z,8.60
2023-04-03T13:15:05.063Z,8.60
2023-04-03T13:17:33.231Z,8.60
2023-04-03T13:20:13.330Z,8.50
2023-04-03T13:22:49.886Z,8.50
2023-04-03T13:25:21.730Z,8.50
2023-04-03T13:27:49.788Z,8.40
2023-04-03T13:30:30.381Z,8.50
2023-04-03T13:33:01.121Z,8.50
2023-04-03T13:35:36.797Z,8.30
2023-04-03T13:38:23.082Z,8.20
2023-04-03T13:40:53.814Z,8.20
2023-04-03T13:43:25.092Z,8.40
2023-04-03T13:46:05.897Z,8.50
2023-04-03T13:48:39.552Z,8.50
2023-04-03T13:51:19.265Z,8.50
2023-04-03T13:53:50.454Z,8.40
2023-04-03T13:56:27.871Z,8.40
2023-04-03T13:59:03.294Z,8.40
2023-04-03T14:01:42.268Z,8.40
2023-04-03T14:04:17.947Z,8.30
2023-04-03T14:06:46.199Z,8.40
2023-04-03T14:09:14.286Z,8.40
2023-04-03T14:11:44.340Z,8.40
2023-04-03T14:14:16.481Z,8.20
2023-04-03T14:16:47.901Z,8.30
2023-04-03T14:19:24.894Z,8.30
2023-04-03T14:21:53.543Z,8.40
2023-04-03T14:24:22.539Z,8.40
2023-04-03T14:26:54.967Z,8.50
2023-04-03T14:29:23.935Z,8.30
2023-04-03T14:32:00.427Z,8.20
2023-04-03T14:34:35.664Z,8.30
2023-04-03T14:37:03.519Z,8.40
2023-04-03T14:39:31.380Z,8.40
2023-04-03T14:42:00.583Z,8.40
2023-04-03T14:44:28.837Z,8.60
2023-04-03T14:46:57.783Z,8.50
2023-04-03T14:49:30.195Z,8.50
2023-04-03T14:51:58.558Z,8.40
2023-04-03T14:54:28.553Z,8.10
2023-04-03T14:57:01.240Z,8.10
2023-04-03T14:59:30.185Z,8.20
2023-04-03T15:01:58.063Z,8.20
2023-04-03T15:04:26.416Z,7.80
2023-04-03T15:06:54.917Z,7.70
2023-04-03T15:09:25.569Z,7.60
2023-04-03T15:11:54.843Z,7.80
2023-04-03T15:14:35.977Z,8.00
2023-04-03T15:17:05.888Z,8.30
2023-04-03T15:19:38.602Z,8.20
2023-04-03T15:22:06.988Z,7.90
2023-04-03T15:24:34.837Z,7.80
2023-04-03T15:27:03.303Z,7.60
2023-04-03T15:29:32.710Z,7.50
2023-04-03T15:32:00.573Z,7.40
2023-04-03T15:34:29.641Z,7.50
2023-04-03T15:36:57.672Z,7.50
2023-04-03T15:39:27.151Z,7.60
2023-04-03T15:41:55.223Z,7.70
2023-04-03T15:44:23.473Z,7.70
2023-04-03T15:46:52.730Z,7.60
2023-04-03T15:49:22.784Z,7.50
2023-04-03T15:51:50.712Z,7.50
2023-04-03T15:54:19.187Z,7.50
2023-04-03T15:56:47.119Z,7.50
2023-04-03T15:59:14.945Z,7.50
2023-04-03T16:01:43.025Z,7.50
2023-04-03T16:04:12.788Z,7.40
2023-04-03T16:06:41.599Z,7.40
2023-04-03T16:09:11.295Z,7.40
2023-04-03T16:11:40.200Z,7.40
2023-04-03T16:14:08.539Z,7.40
2023-04-03T16:16:37.553Z,7.50
2023-04-03T16:19:06.144Z,7.50
2023-04-03T16:21:35.805Z,7.40
2023-04-03T16:24:05.293Z,7.40
2023-04-03T16:26:33.375Z,7.40
2023-04-03T16:29:01.390Z,7.40
2023-04-03T16:31:29.772Z,7.30
2023-04-03T16:33:58.225Z,7.30
2023-04-03T16:36:26.654Z,7.30
2023-04-03T16:38:55.960Z,7.20
2023-04-03T16:41:23.820Z,7.10
2023-04-03T16:43:52.056Z,7.10
2023-04-03T16:46:19.933Z,7.10
2023-04-03T16:48:47.975Z,7.00
2023-04-03T16:51:15.947Z,6.90
2023-04-03T16:53:43.927Z,6.90
2023-04-03T16:56:13.110Z,6.90
2023-04-03T16:58:40.986Z,6.90
2023-04-03T17:01:13.099Z,6.90
2023-04-03T17:03:41.219Z,6.80
2023-04-03T17:06:09.260Z,6.80
2023-04-03T17:08:37.264Z,6.80
2023-04-03T17:11:05.323Z,6.80
2023-04-03T17:13:35.940Z,6.60
2023-04-03T17:16:06.040Z,6.40
2023-04-03T17:18:34.701Z,6.40
2023-04-03T17:21:03.252Z,6.30
2023-04-03T17:23:31.417Z,6.10
2023-04-03T17:25:59.306Z,6.10
2023-04-03T17:28:28.696Z,6.00
2023-04-03T17:31:01.540Z,5.90
2023-04-03T17:33:31.478Z,5.80
2023-04-03T17:36:01.317Z,5.80
2023-04-03T17:38:29.560Z,5.80
2023-04-03T17:40:58.457Z,5.70
2023-04-03T17:43:27.590Z,5.60
2023-04-03T17:46:03.377Z,5.50
2023-04-03T17:48:33.420Z,5.50
2023-04-03T17:51:04.682Z,5.40
2023-04-03T17:53:32.782Z,5.30
2023-04-03T17:56:05.975Z,5.30
2023-04-03T17:58:33.855Z,5.20
2023-04-03T18:01:09.165Z,5.00
2023-04-03T18:03:39.438Z,5.00
2023-04-03T18:06:09.736Z,5.00
2023-04-03T18:08:40.781Z,5.00
2023-04-03T18:11:09.947Z,4.90
2023-04-03T18:13:38.235Z,4.80
2023-04-03T18:16:08.305Z,4.80
2023-04-03T18:18:37.927Z,4.70
2023-04-03T18:21:06.700Z,4.70
2023-04-03T18:23:36.793Z,4.60
2023-04-03T18:26:05.756Z,4.50
2023-04-03T18:28:33.628Z,4.40
2023-04-03T18:31:02.985Z,4.40
2023-04-03T18:33:31.184Z,4.30
2023-04-03T18:36:00.370Z,4.20
2023-04-03T18:38:28.161Z,4.20
2023-04-03T18:40:56.577Z,4.20
2023-04-03T18:43:26.405Z,4.10
2023-04-03T18:45:54.815Z,4.00
2023-04-03T18:48:22.641Z,4.00
2023-04-03T18:50:50.608Z,3.90
2023-04-03T18:53:19.866Z,3.80
2023-04-03T18:55:47.721Z,3.80
2023-04-03T18:58:15.691Z,3.80
2023-04-03T19:00:43.790Z,3.70
2023-04-03T19:03:12.713Z,3.60
2023-04-03T19:05:41.168Z,3.60
2023-04-03T19:08:09.534Z,3.60
2023-04-03T19:10:38.771Z,3.50
2023-04-03T19:13:07.294Z,3.50
2023-04-03T19:15:35.146Z,3.50
2023-04-03T19:18:03.108Z,3.50
2023-04-03T19:20:31.100Z,3.40
2023-04-03T19:22:58.961Z,3.30
2023-04-03T19:25:26.779Z,3.30
2023-04-03T19:27:57.008Z,3.20
2023-04-03T19:30:25.615Z,3.20
2023-04-03T19:32:53.537Z,3.20
2023-04-03T19:35:21.409Z,3.20
2023-04-03T19:37:51.100Z,3.20
2023-04-03T19:40:19.744Z,3.20
2023-04-03T19:42:47.566Z,3.10
2023-04-03T19:45:18.108Z,3.20
2023-04-03T19:47:46.903Z,3.10
2023-04-03T19:50:14.929Z,3.00
2023-04-03T19:52:42.816Z,2.90
2023-04-03T19:55:11.493Z,2.80
2023-04-03T19:57:39.455Z,2.70
2023-04-03T20:00:08.899Z,2.70
2023-04-03T20:02:40.647Z,2.70
2023-04-03T20:05:09.475Z,2.60
2023-04-03T20:07:37.358Z,2.60
2023-04-03T20:10:05.940Z,2.50
2023-04-03T20:12:35.689Z,2.50
2023-04-03T20:15:07.298Z,2.50
2023-04-03T20:17:35.853Z,2.50
2023-04-03T20:20:06.445Z,2.40
2023-04-03T20:22:36.144Z,2.40
2023-04-03T20:25:06.345Z,2.40
2023-04-03T20:27:35.423Z,2.30
2023-04-03T20:30:04.310Z,2.30
2023-04-03T20:32:32.380Z,2.20
2023-04-03T20:35:04.331Z,2.10
2023-04-03T20:37:34.098Z,2.10
2023-04-03T20:40:01.956Z,2.00
2023-04-03T20:42:29.852Z,2.00
2023-04-03T20:44:58.300Z,2.00
2023-04-03T20:47:26.395Z,2.00
2023-04-03T20:49:55.604Z,1.90
2023-04-03T20:52:23.520Z,1.90
2023-04-03T20:54:53.520Z,1.90
2023-04-03T20:57:21.691Z,1.90
2023-04-03T20:59:52.403Z,1.80
2023-04-03T21:02:20.522Z,1.90
2023-04-03T21:04:51.439Z,1.80
2023-04-03T21:07:56.834Z,1.80
2023-04-03T21:11:02.704Z,1.80
2023-04-03T21:14:08.063Z,1.70
2023-04-03T21:16:37.252Z,1.60
2023-04-03T21:19:15.644Z,1.60
2023-04-03T21:21:45.551Z,1.60
2023-04-03T21:24:14.942Z,1.60
2023-04-03T21:26:44.014Z,1.50
2023-04-03T21:29:12.553Z,1.50
2023-04-03T21:31:56.703Z,1.40
2023-04-03T21:34:27.496Z,1.40
2023-04-03T21:36:55.915Z,1.40
2023-04-03T21:39:24.221Z,1.30
2023-04-03T21:41:52.543Z,1.30
2023-04-03T21:44:20.852Z,1.30
2023-04-03T21:46:49.315Z,1.20
2023-04-03T21:49:17.323Z,1.20
2023-04-03T21:51:46.521Z,1.20
2023-04-03T21:54:14.350Z,1.20
2023-04-03T21:56:42.217Z,1.10
2023-04-03T21:59:10.442Z,1.10
2023-04-03T22:01:38.534Z,1.10
2023-04-03T22:04:06.407Z,1.00
2023-04-03T22:06:34.307Z,1.00
2023-04-03T22:09:03.826Z,1.00
2023-04-03T22:11:32.058Z,1.00
2023-04-03T22:14:00.204Z,1.00
2023-04-03T22:16:28.146Z,0.90
2023-04-03T22:18:59.033Z,0.90
2023-04-03T22:21:27.011Z,0.90
2023-04-03T22:23:55.394Z,0.80
2023-04-03T22:26:24.648Z,0.80
2023-04-03T22:28:52.593Z,0.80
2023-04-03T22:31:20.945Z,0.80
2023-04-03T22:33:48.859Z,0.80
2023-04-03T22:36:16.859Z,0.80
2023-04-03T22:38:44.715Z,0.70
2023-04-03T22:41:12.605Z,0.70
2023-04-03T22:43:42.537Z,0.70
2023-04-03T22:46:11.019Z,0.70
2023-04-03T22:48:42.259Z,0.60
2023-04-03T22:51:10.281Z,0.60
2023-04-03T22:53:38.693Z,0.60
2023-04-03T22:56:10.546Z,0.50
2023-04-03T22:58:38.852Z,0.50
2023-04-03T23:01:09.612Z,0.50
2023-04-03T23:03:38.833Z,0.40
2023-04-03T23:06:07.637Z,0.40
2023-04-03T23:08:38.053Z,0.40
2023-04-03T23:11:09.118Z,0.30
2023-04-03T23:13:37.196Z,0.30
2023-04-03T23:16:06.055Z,0.30
2023-04-03T23:18:39.474Z,0.30
2023-04-03T23:21:07.838Z,0.30
2023-04-03T23:23:35.727Z,0.30
2023-04-03T23:26:03.808Z,0.30
2023-04-03T23:28:31.624Z,0.20
2023-04-03T23:31:01.304Z,0.20
2023-04-03T23:33:30.304Z,0.20
2023-04-03T23:36:02.062Z,0.20
2023-04-03T23:38:30.065Z,0.10
2023-04-03T23:40:58.015Z,0.10
2023-04-03T23:43:26.003Z,0.10
2023-04-03T23:45:54.117Z,0.10
2023-04-03T23:48:22.000Z,0.10
2023-04-03T23:50:49.904Z,0.10
2023-04-03T23:53:19.288Z,0.10
2023-04-03T23:55:47.202Z,0.00
2023-04-03T23:58:15.177Z,0.00
